Time;durP1;ratioP1;P1;durP2;ratioP2;P2;SDS_P1;SDS_P2;PMS_P1;PMS_P2;Temp;Humidity;BMP_temperature;BMP_pressure;BME280_temperature;BME280_humidity;BME280_pressure;Samples;Min_cycle;Max_cycle;Signal;HPM_P1;HPM_P2
2023/11/07 00:01:31;;;;;;;7.95;2.30;;;;;;;;;;5047108;28;20032;-72
2023/11/07 00:03:58;;;;;;;8.85;2.10;;;;;;;;;;5058644;28;20370;-71
2023/11/07 00:06:23;;;;;;;9.52;2.72;;;;;;;;;;5064533;28;20072;-72
2023/11/07 00:08:50;;;;;;;11.43;2.42;;;;;;;;;;5059482;28;20052;-71
2023/11/07 00:11:15;;;;;;;16.98;3.40;;;;;;;;;;5053097;28;20029;-71
2023/11/07 00:13:42;;;;;;;22.92;2.95;;;;;;;;;;5067199;28;20029;-71
2023/11/07 00:16:09;;;;;;;13.45;3.22;;;;;;;;;;5067102;28;20054;-71
2023/11/07 00:18:35;;;;;;;19.35;3.20;;;;;;;;;;5057315;28;20016;-71
2023/11/07 00:21:00;;;;;;;12.65;3.28;;;;;;;;;;5074862;28;20386;-71
2023/11/07 00:23:25;;;;;;;8.10;2.38;;;;;;;;;;5074796;28;20028;-71
2023/11/07 00:25:53;;;;;;;16.85;3.08;;;;;;;;;;5075049;28;20492;-71
2023/11/07 00:28:19;;;;;;;11.90;3.35;;;;;;;;;;5074023;28;20020;-71
2023/11/07 00:30:44;;;;;;;3.83;1.85;;;;;;;;;;5074946;28;20070;-71
2023/11/07 00:33:09;;;;;;;7.75;2.28;;;;;;;;;;5074250;28;20020;-71
2023/11/07 00:35:36;;;;;;;4.55;1.73;;;;;;;;;;5057328;28;20058;-71
2023/11/07 00:38:04;;;;;;;15.10;3.15;;;;;;;;;;5074509;28;20104;-71
2023/11/07 00:40:29;;;;;;;8.35;2.80;;;;;;;;;;5074966;28;20019;-71
2023/11/07 00:42:55;;;;;;;9.88;2.60;;;;;;;;;;5056356;28;20028;-71
2023/11/07 00:45:20;;;;;;;10.75;3.45;;;;;;;;;;5075348;28;20051;-71
2023/11/07 00:47:46;;;;;;;12.25;2.92;;;;;;;;;;5074815;28;20020;-71
2023/11/07 00:50:11;;;;;;;11.32;3.00;;;;;;;;;;5074553;28;20086;-71
2023/11/07 00:52:38;;;;;;;15.57;3.53;;;;;;;;;;5074078;28;20555;-71
2023/11/07 00:55:05;;;;;;;7.78;3.63;;;;;;;;;;5056951;28;20105;-71
2023/11/07 00:57:30;;;;;;;8.57;2.95;;;;;;;;;;5074538;28;20497;-71
2023/11/07 00:59:56;;;;;;;12.52;3.10;;;;;;;;;;5051678;28;20108;-71
2023/11/07 01:02:21;;;;;;;21.65;3.53;;;;;;;;;;5054767;28;20017;-71
2023/11/07 01:04:47;;;;;;;11.77;3.30;;;;;;;;;;5054387;28;20441;-71
2023/11/07 01:07:13;;;;;;;21.42;4.68;;;;;;;;;;5054412;28;20039;-71
2023/11/07 01:09:38;;;;;;;15.25;2.95;;;;;;;;;;5058549;28;20479;-71
2023/11/07 01:12:04;;;;;;;9.45;3.38;;;;;;;;;;5054433;28;20025;-71
2023/11/07 01:14:30;;;;;;;15.07;3.42;;;;;;;;;;5036235;28;20040;-71
2023/11/07 01:16:55;;;;;;;12.52;3.45;;;;;;;;;;5054124;28;20063;-71
2023/11/07 01:19:23;;;;;;;6.45;2.58;;;;;;;;;;5057944;28;20099;-71
2023/11/07 01:21:48;;;;;;;7.57;3.35;;;;;;;;;;5072093;28;20507;-71
2023/11/07 01:24:13;;;;;;;8.98;2.53;;;;;;;;;;5073993;28;20033;-71
2023/11/07 01:26:39;;;;;;;8.60;3.17;;;;;;;;;;5073638;28;20025;-71
2023/11/07 01:29:04;;;;;;;10.00;2.75;;;;;;;;;;5073949;28;20039;-71
2023/11/07 01:31:29;;;;;;;13.95;2.53;;;;;;;;;;5056577;28;20108;-71
2023/11/07 01:33:55;;;;;;;9.15;2.63;;;;;;;;;;5074256;28;20023;-71
2023/11/07 01:36:21;;;;;;;7.88;2.47;;;;;;;;;;5056408;28;20013;-71
2023/11/07 01:38:46;;;;;;;15.88;2.63;;;;;;;;;;5056169;28;20051;-71
2023/11/07 01:41:12;;;;;;;13.63;3.15;;;;;;;;;;5074205;28;20020;-71
2023/11/07 01:43:38;;;;;;;10.25;3.40;;;;;;;;;;5056424;28;20029;-71
2023/11/07 01:46:03;;;;;;;19.30;4.32;;;;;;;;;;5073359;28;20020;-71
2023/11/07 01:48:29;;;;;;;19.83;5.55;;;;;;;;;;5056668;28;20032;-71
2023/11/07 01:50:57;;;;;;;21.95;5.45;;;;;;;;;;5073961;28;20028;-71
2023/11/07 01:53:22;;;;;;;19.02;5.15;;;;;;;;;;5073941;28;20036;-71
2023/11/07 01:55:48;;;;;;;21.17;6.13;;;;;;;;;;5073780;28;20028;-71
2023/11/07 01:58:14;;;;;;;20.15;5.63;;;;;;;;;;5073576;28;20028;-71
2023/11/07 02:00:40;;;;;;;16.02;5.10;;;;;;;;;;5073787;28;20021;-71
2023/11/07 02:03:07;;;;;;;20.83;5.55;;;;;;;;;;5056258;28;20035;-71
2023/11/07 02:06:11;;;;;;;15.50;5.00;;;;;;;;;;5055989;28;20025;-71
2023/11/07 02:08:36;;;;;;;10.20;5.00;;;;;;;;;;5073621;28;20032;-71
2023/11/07 02:11:02;;;;;;;16.27;4.95;;;;;;;;;;5073484;28;20032;-71
2023/11/07 02:13:27;;;;;;;23.13;5.50;;;;;;;;;;5056256;28;20020;-71
2023/11/07 02:15:55;;;;;;;18.65;5.40;;;;;;;;;;5073689;28;20029;-71
2023/11/07 02:18:20;;;;;;;15.75;4.35;;;;;;;;;;5055705;28;20367;-71
2023/11/07 02:20:46;;;;;;;16.48;4.55;;;;;;;;;;5073051;28;20054;-71
2023/11/07 02:23:28;;;;;;;15.80;4.30;;;;;;;;;;5074518;28;20107;-71
2023/11/07 02:25:54;;;;;;;14.77;3.63;;;;;;;;;;5055467;28;20549;-71
2023/11/07 02:28:19;;;;;;;13.60;4.20;;;;;;;;;;5072995;28;20159;-71
2023/11/07 02:30:45;;;;;;;18.88;3.60;;;;;;;;;;5073806;28;20025;-71
2023/11/07 02:33:11;;;;;;;20.27;3.35;;;;;;;;;;5073462;28;20073;-71
2023/11/07 02:35:37;;;;;;;21.65;3.45;;;;;;;;;;5073301;28;20496;-71
2023/11/07 02:38:02;;;;;;;14.70;3.63;;;;;;;;;;5073291;28;20025;-71
2023/11/07 02:40:28;;;;;;;10.13;3.63;;;;;;;;;;5054955;28;20034;-71
2023/11/07 02:42:53;;;;;;;15.30;3.63;;;;;;;;;;5073339;28;20087;-71
2023/11/07 02:45:18;;;;;;;14.70;3.97;;;;;;;;;;5073130;28;20032;-71
2023/11/07 02:47:43;;;;;;;15.23;3.60;;;;;;;;;;5073620;28;20055;-71
2023/11/07 02:50:10;;;;;;;18.52;3.38;;;;;;;;;;5073561;28;20385;-71
2023/11/07 02:52:37;;;;;;;7.35;3.10;;;;;;;;;;5074620;28;20082;-71
2023/11/07 02:55:02;;;;;;;11.90;2.80;;;;;;;;;;5077112;28;20469;-71
2023/11/07 02:57:28;;;;;;;14.30;2.92;;;;;;;;;;5059037;28;20032;-71
2023/11/07 02:59:53;;;;;;;6.80;2.90;;;;;;;;;;5077269;28;20033;-71
2023/11/07 03:02:19;;;;;;;14.55;2.90;;;;;;;;;;5061605;28;20104;-71
2023/11/07 03:04:44;;;;;;;13.05;4.47;;;;;;;;;;5051417;28;20029;-71
2023/11/07 03:07:10;;;;;;;9.65;2.10;;;;;;;;;;5056294;28;20029;-71
2023/11/07 03:09:35;;;;;;;6.65;2.03;;;;;;;;;;5059010;28;20059;-72
2023/11/07 03:12:01;;;;;;;8.63;2.55;;;;;;;;;;5056732;28;20080;-71
2023/11/07 03:14:26;;;;;;;12.93;2.58;;;;;;;;;;5038346;28;20182;-71
2023/11/07 03:16:51;;;;;;;10.70;2.55;;;;;;;;;;5057960;28;20044;-71
2023/11/07 03:19:17;;;;;;;18.35;2.35;;;;;;;;;;5075961;28;20032;-71
2023/11/07 03:21:42;;;;;;;5.70;2.40;;;;;;;;;;5076750;28;20085;-71
2023/11/07 03:24:08;;;;;;;13.45;2.95;;;;;;;;;;5076576;28;20025;-71
2023/11/07 03:26:34;;;;;;;10.70;2.70;;;;;;;;;;5076372;28;20406;-71
2023/11/07 03:28:59;;;;;;;9.20;2.45;;;;;;;;;;5075951;28;20155;-71
2023/11/07 03:31:25;;;;;;;14.52;3.28;;;;;;;;;;5076096;28;20111;-71
2023/11/07 03:33:51;;;;;;;19.83;4.07;;;;;;;;;;5076067;28;20079;-71
2023/11/07 03:36:17;;;;;;;11.95;3.85;;;;;;;;;;5076269;28;20370;-71
2023/11/07 03:38:43;;;;;;;11.15;3.38;;;;;;;;;;5058471;28;20153;-71
2023/11/07 03:41:09;;;;;;;11.80;3.05;;;;;;;;;;5076672;28;20033;-71
2023/11/07 03:43:34;;;;;;;14.70;3.95;;;;;;;;;;5057884;28;20110;-71
2023/11/07 03:46:00;;;;;;;19.25;3.72;;;;;;;;;;5076394;28;20086;-71
2023/11/07 03:48:25;;;;;;;19.42;4.72;;;;;;;;;;5076421;28;20036;-71
2023/11/07 03:50:53;;;;;;;10.02;4.57;;;;;;;;;;5076030;28;20066;-71
2023/11/07 03:53:19;;;;;;;14.15;3.42;;;;;;;;;;5076030;28;20029;-71
2023/11/07 03:55:44;;;;;;;22.23;3.97;;;;;;;;;;5057439;28;20021;-71
2023/11/07 03:58:09;;;;;;;13.48;4.13;;;;;;;;;;5069969;28;20478;-71
2023/11/07 04:00:34;;;;;;;12.20;3.83;;;;;;;;;;5058527;28;20028;-71
2023/11/07 04:03:00;;;;;;;14.30;3.75;;;;;;;;;;5070298;28;20458;-71
2023/11/07 04:05:25;;;;;;;13.43;3.42;;;;;;;;;;5069839;28;20021;-71
2023/11/07 04:07:51;;;;;;;20.90;3.75;;;;;;;;;;5055519;28;20032;-71
2023/11/07 04:10:16;;;;;;;16.38;3.33;;;;;;;;;;5049880;28;20088;-71
2023/11/07 04:12:41;;;;;;;14.15;3.15;;;;;;;;;;5075113;28;20020;-71
2023/11/07 04:15:09;;;;;;;10.93;3.80;;;;;;;;;;5075095;28;20035;-71
2023/11/07 04:17:35;;;;;;;12.10;3.53;;;;;;;;;;5075417;28;20039;-71
2023/11/07 04:20:00;;;;;;;28.33;4.88;;;;;;;;;;5056852;28;20023;-71
2023/11/07 04:22:25;;;;;;;10.63;4.10;;;;;;;;;;5075366;28;20029;-71
2023/11/07 04:24:51;;;;;;;10.65;3.42;;;;;;;;;;5074959;28;20052;-71
2023/11/07 04:27:17;;;;;;;12.23;3.75;;;;;;;;;;5075161;28;20021;-71
2023/11/07 04:29:42;;;;;;;13.43;3.78;;;;;;;;;;5074572;28;20133;-71
2023/11/07 04:32:07;;;;;;;22.85;4.07;;;;;;;;;;5075034;28;20095;-71
2023/11/07 04:34:34;;;;;;;13.25;3.67;;;;;;;;;;5074903;28;20028;-71
2023/11/07 04:36:59;;;;;;;16.67;5.40;;;;;;;;;;5074636;28;20498;-71
2023/11/07 04:39:25;;;;;;;15.60;3.97;;;;;;;;;;5056818;28;20058;-71
2023/11/07 04:41:51;;;;;;;14.50;3.92;;;;;;;;;;5074304;28;20031;-71
2023/11/07 04:44:16;;;;;;;9.88;3.80;;;;;;;;;;5074561;28;20021;-71
2023/11/07 04:46:42;;;;;;;18.00;4.53;;;;;;;;;;5074518;28;20023;-71
2023/11/07 04:49:09;;;;;;;16.10;3.40;;;;;;;;;;5074692;28;20028;-71
2023/11/07 04:51:34;;;;;;;13.80;3.40;;;;;;;;;;5056191;28;20053;-71
2023/11/07 04:53:59;;;;;;;11.15;3.15;;;;;;;;;;5068139;28;20020;-71
2023/11/07 04:56:25;;;;;;;12.23;3.97;;;;;;;;;;5074466;28;20027;-71
2023/11/07 04:58:50;;;;;;;14.48;4.88;;;;;;;;;;5074898;28;20032;-71
2023/11/07 05:01:15;;;;;;;13.70;5.57;;;;;;;;;;5073863;28;20493;-71
2023/11/07 05:03:44;;;;;;;17.65;6.45;;;;;;;;;;5074524;28;20024;-71
2023/11/07 05:06:09;;;;;;;21.05;7.25;;;;;;;;;;5073420;28;20028;-71
2023/11/07 05:08:34;;;;;;;26.88;11.43;;;;;;;;;;5074225;28;20024;-71
2023/11/07 05:11:00;;;;;;;19.45;7.50;;;;;;;;;;5054651;28;20397;-71
2023/11/07 05:13:25;;;;;;;20.63;6.30;;;;;;;;;;5072451;28;20047;-71
2023/11/07 05:15:50;;;;;;;14.75;5.55;;;;;;;;;;5073217;28;20028;-71
2023/11/07 05:18:16;;;;;;;15.90;4.93;;;;;;;;;;5074137;28;20035;-71
2023/11/07 05:20:44;;;;;;;14.77;4.85;;;;;;;;;;5074020;28;20029;-71
2023/11/07 05:23:09;;;;;;;16.40;3.88;;;;;;;;;;5074014;28;20029;-71
2023/11/07 05:25:35;;;;;;;11.23;3.08;;;;;;;;;;5073409;28;20036;-71
2023/11/07 05:28:02;;;;;;;8.52;2.80;;;;;;;;;;5056020;28;20020;-71
2023/11/07 05:30:27;;;;;;;12.20;2.78;;;;;;;;;;5056106;28;20028;-71
2023/11/07 05:32:52;;;;;;;17.48;3.38;;;;;;;;;;5073864;28;20031;-71
2023/11/07 05:35:18;;;;;;;16.08;2.90;;;;;;;;;;5073897;28;20024;-71
2023/11/07 05:37:44;;;;;;;22.10;2.63;;;;;;;;;;5073995;28;20082;-70
2023/11/07 05:40:13;;;;;;;10.20;2.22;;;;;;;;;;5073152;28;20112;-71
2023/11/07 05:42:42;;;;;;;8.80;1.83;;;;;;;;;;5071964;28;20024;-71
2023/11/07 05:45:08;;;;;;;2.08;1.38;;;;;;;;;;5073603;28;20489;-71
2023/11/07 05:47:33;;;;;;;4.85;2.00;;;;;;;;;;5070910;28;20100;-71
2023/11/07 05:49:59;;;;;;;5.95;1.70;;;;;;;;;;5048101;28;20036;-71
2023/11/07 05:52:24;;;;;;;8.90;2.40;;;;;;;;;;5053371;28;20032;-71
2023/11/07 05:54:49;;;;;;;11.88;2.33;;;;;;;;;;5053361;28;20017;-71
2023/11/07 05:57:15;;;;;;;8.93;2.50;;;;;;;;;;5053525;28;20032;-71
2023/11/07 05:59:40;;;;;;;13.30;2.95;;;;;;;;;;5054185;28;20517;-71
2023/11/07 06:02:06;;;;;;;11.38;2.72;;;;;;;;;;5054971;28;20114;-70
2023/11/07 06:04:33;;;;;;;12.02;3.35;;;;;;;;;;5053298;28;20023;-70
2023/11/07 06:06:59;;;;;;;19.70;4.03;;;;;;;;;;5038125;28;20025;-71
2023/11/07 06:09:26;;;;;;;12.50;4.40;;;;;;;;;;5053248;28;20021;-70
2023/11/07 06:11:52;;;;;;;12.85;4.35;;;;;;;;;;5058388;28;20064;-71
2023/11/07 06:14:17;;;;;;;14.52;4.22;;;;;;;;;;5066779;28;20129;-71
2023/11/07 06:16:42;;;;;;;25.70;5.40;;;;;;;;;;5055422;28;20029;-70
2023/11/07 06:19:10;;;;;;;18.13;4.35;;;;;;;;;;5052143;28;20021;-71
2023/11/07 06:21:36;;;;;;;11.88;4.10;;;;;;;;;;5069233;28;20103;-70
2023/11/07 06:24:01;;;;;;;15.20;3.97;;;;;;;;;;5072974;28;20445;-70
2023/11/07 06:26:27;;;;;;;13.00;4.45;;;;;;;;;;5064873;28;20060;-71
2023/11/07 06:28:53;;;;;;;11.15;5.18;;;;;;;;;;5057418;28;20107;-71
2023/11/07 06:31:24;;;;;;;11.10;4.40;;;;;;;;;;5062681;28;20097;-71
2023/11/07 06:33:49;;;;;;;15.93;5.22;;;;;;;;;;5056611;28;20029;-71
2023/11/07 06:36:14;;;;;;;18.58;4.65;;;;;;;;;;5059383;28;20017;-71
2023/11/07 06:38:40;;;;;;;12.57;4.22;;;;;;;;;;5077207;28;20032;-71
2023/11/07 06:41:07;;;;;;;9.95;3.58;;;;;;;;;;5075833;28;20078;-71
2023/11/07 06:43:33;;;;;;;15.27;4.15;;;;;;;;;;5055160;28;20052;-71
2023/11/07 06:45:58;;;;;;;16.58;4.68;;;;;;;;;;5058744;28;20427;-71
2023/11/07 06:48:26;;;;;;;13.38;4.60;;;;;;;;;;5070039;28;20033;-71
2023/11/07 06:50:51;;;;;;;16.73;4.68;;;;;;;;;;5056105;28;20482;-71
2023/11/07 06:53:16;;;;;;;16.05;4.68;;;;;;;;;;5056303;28;20074;-71
2023/11/07 06:55:42;;;;;;;17.90;5.03;;;;;;;;;;5069492;28;20027;-71
2023/11/07 06:58:08;;;;;;;19.33;5.78;;;;;;;;;;5076187;28;20107;-71
2023/11/07 07:00:34;;;;;;;19.20;4.97;;;;;;;;;;5065128;28;20513;-71
2023/11/07 07:03:01;;;;;;;24.67;6.82;;;;;;;;;;5076266;28;20111;-71
2023/11/07 07:05:27;;;;;;;16.58;5.45;;;;;;;;;;5073982;28;20024;-71
2023/11/07 07:07:53;;;;;;;16.58;5.95;;;;;;;;;;5039598;28;20478;-71
2023/11/07 07:10:18;;;;;;;20.90;6.28;;;;;;;;;;5038079;28;20041;-71
2023/11/07 07:12:43;;;;;;;15.02;5.47;;;;;;;;;;5056741;28;20025;-71
2023/11/07 07:15:11;;;;;;;17.95;5.13;;;;;;;;;;5058652;28;20528;-72
2023/11/07 07:17:37;;;;;;;33.45;5.65;;;;;;;;;;5062708;28;20030;-71
2023/11/07 07:20:11;;;;;;;20.40;5.65;;;;;;;;;;5038266;28;20389;-71
2023/11/07 07:22:41;;;;;;;21.77;5.15;;;;;;;;;;5041712;28;20021;-71
2023/11/07 07:25:07;;;;;;;16.63;6.80;;;;;;;;;;5043367;28;20029;-71
2023/11/07 07:27:33;;;;;;;13.88;5.60;;;;;;;;;;5055645;28;20039;-71
2023/11/07 07:30:03;;;;;;;15.85;4.35;;;;;;;;;;5050271;28;20051;-71
2023/11/07 07:32:28;;;;;;;9.63;4.07;;;;;;;;;;5075900;28;20095;-71
2023/11/07 07:34:53;;;;;;;11.75;3.67;;;;;;;;;;5075329;28;20024;-71
2023/11/07 07:37:20;;;;;;;15.48;4.43;;;;;;;;;;5075060;28;20409;-71
2023/11/07 07:39:49;;;;;;;15.18;5.25;;;;;;;;;;5075324;28;20090;-71
2023/11/07 07:42:17;;;;;;;20.17;4.30;;;;;;;;;;5043913;28;20032;-71
2023/11/07 07:44:42;;;;;;;12.30;3.97;;;;;;;;;;5069699;28;20043;-71
2023/11/07 07:47:08;;;;;;;12.95;3.92;;;;;;;;;;5057341;28;20474;-71
2023/11/07 07:49:35;;;;;;;10.85;3.55;;;;;;;;;;5075225;28;20025;-71
2023/11/07 07:52:22;;;;;;;15.85;3.38;;;;;;;;;;5075410;28;20024;-71
2023/11/07 07:54:48;;;;;;;15.85;3.85;;;;;;;;;;5074923;28;20024;-71
2023/11/07 07:57:13;;;;;;;9.55;3.08;;;;;;;;;;5075669;28;20401;-71
2023/11/07 07:59:41;;;;;;;15.10;3.13;;;;;;;;;;5057319;28;20028;-71
2023/11/07 08:02:07;;;;;;;16.38;3.15;;;;;;;;;;5075659;28;20055;-71
2023/11/07 08:04:32;;;;;;;12.07;3.90;;;;;;;;;;5057394;28;20089;-71
2023/11/07 08:06:57;;;;;;;9.93;3.00;;;;;;;;;;5074867;28;20013;-71
2023/11/07 08:09:23;;;;;;;16.98;3.63;;;;;;;;;;5057472;28;20406;-71
2023/11/07 08:11:50;;;;;;;12.10;2.92;;;;;;;;;;5074689;28;20036;-71
2023/11/07 08:14:16;;;;;;;12.80;4.03;;;;;;;;;;5074001;28;20397;-71
2023/11/07 08:16:43;;;;;;;14.55;3.25;;;;;;;;;;5057301;28;20102;-71
2023/11/07 08:19:12;;;;;;;19.25;4.03;;;;;;;;;;5075300;28;20021;-71
2023/11/07 08:21:40;;;;;;;19.20;3.40;;;;;;;;;;5074982;28;20016;-71
2023/11/07 08:24:07;;;;;;;6.72;3.10;;;;;;;;;;5074539;28;20028;-71
2023/11/07 08:26:35;;;;;;;10.68;3.25;;;;;;;;;;5056981;28;20067;-71
2023/11/07 08:29:05;;;;;;;16.05;4.40;;;;;;;;;;5075285;28;20090;-71
2023/11/07 08:31:32;;;;;;;16.30;3.05;;;;;;;;;;5075138;28;20059;-71
2023/11/07 08:33:58;;;;;;;13.02;3.33;;;;;;;;;;5074989;28;20054;-71
2023/11/07 08:36:24;;;;;;;16.77;3.08;;;;;;;;;;5074737;28;20031;-71
2023/11/07 08:38:49;;;;;;;12.27;3.38;;;;;;;;;;5056779;28;20099;-71
2023/11/07 08:41:14;;;;;;;17.30;3.08;;;;;;;;;;5074984;28;20020;-72
2023/11/07 08:43:40;;;;;;;16.50;3.47;;;;;;;;;;5074739;28;20043;-71
2023/11/07 08:46:05;;;;;;;12.57;2.97;;;;;;;;;;5074575;28;20055;-72
2023/11/07 08:48:31;;;;;;;10.80;3.75;;;;;;;;;;5074191;28;20063;-72
2023/11/07 08:50:57;;;;;;;13.07;3.08;;;;;;;;;;5073747;28;20047;-71
2023/11/07 08:53:22;;;;;;;12.88;3.38;;;;;;;;;;5074520;28;20025;-71
2023/11/07 08:55:50;;;;;;;14.82;3.53;;;;;;;;;;5074292;28;20044;-71
2023/11/07 08:58:19;;;;;;;8.90;4.45;;;;;;;;;;5073865;28;20535;-71
2023/11/07 09:00:44;;;;;;;12.05;4.88;;;;;;;;;;5074302;28;20036;-72
2023/11/07 09:03:11;;;;;;;10.70;4.53;;;;;;;;;;5074134;28;20020;-71
2023/11/07 09:05:37;;;;;;;12.52;3.88;;;;;;;;;;5073985;28;20025;-71
2023/11/07 09:08:04;;;;;;;10.98;3.30;;;;;;;;;;5074361;28;20371;-71
2023/11/07 09:10:31;;;;;;;7.13;3.15;;;;;;;;;;5073988;28;20028;-71
2023/11/07 09:12:57;;;;;;;14.82;4.57;;;;;;;;;;5074013;28;20446;-71
2023/11/07 09:15:25;;;;;;;15.50;3.50;;;;;;;;;;5074173;28;20044;-71
2023/11/07 09:17:51;;;;;;;16.50;3.45;;;;;;;;;;5074553;28;20052;-71
2023/11/07 09:20:16;;;;;;;17.27;4.78;;;;;;;;;;5073922;28;20500;-72
2023/11/07 09:22:42;;;;;;;17.95;4.55;;;;;;;;;;5073720;28;20032;-72
2023/11/07 09:25:09;;;;;;;14.00;5.13;;;;;;;;;;5056013;28;20075;-72
2023/11/07 09:27:36;;;;;;;17.35;5.45;;;;;;;;;;5073955;28;20032;-72
2023/11/07 09:30:04;;;;;;;14.50;4.38;;;;;;;;;;5055688;28;20020;-72
2023/11/07 09:32:29;;;;;;;12.90;4.10;;;;;;;;;;5073738;28;20050;-72
2023/11/07 09:34:57;;;;;;;23.33;4.72;;;;;;;;;;5073716;28;20024;-72
2023/11/07 09:37:22;;;;;;;11.02;4.90;;;;;;;;;;5071101;28;20024;-72
2023/11/07 09:39:48;;;;;;;12.32;4.10;;;;;;;;;;5066795;28;20032;-72
2023/11/07 09:42:14;;;;;;;17.13;4.15;;;;;;;;;;5058803;28;20024;-72
2023/11/07 09:44:39;;;;;;;13.50;4.47;;;;;;;;;;5061518;28;20020;-71
2023/11/07 09:47:05;;;;;;;16.73;4.88;;;;;;;;;;5072526;28;20111;-72
2023/11/07 09:49:34;;;;;;;16.13;4.15;;;;;;;;;;5070631;28;20047;-72
2023/11/07 09:52:04;;;;;;;24.70;4.13;;;;;;;;;;5070992;28;20021;-71
2023/11/07 09:54:30;;;;;;;14.25;4.32;;;;;;;;;;5036044;28;20036;-71
2023/11/07 09:57:00;;;;;;;17.05;4.35;;;;;;;;;;5062211;28;20017;-72
2023/11/07 09:59:50;;;;;;;14.32;4.20;;;;;;;;;;5035569;28;20025;-72
2023/11/07 10:02:15;;;;;;;16.55;4.45;;;;;;;;;;5035603;28;20402;-72
2023/11/07 10:04:42;;;;;;;9.95;4.05;;;;;;;;;;5053485;28;20025;-72
2023/11/07 10:07:07;;;;;;;20.10;3.38;;;;;;;;;;5035774;28;20028;-72
2023/11/07 10:09:33;;;;;;;12.48;2.92;;;;;;;;;;5065960;28;20017;-72
2023/11/07 10:11:59;;;;;;;21.05;4.15;;;;;;;;;;5072916;28;20029;-72
2023/11/07 10:14:26;;;;;;;14.48;3.53;;;;;;;;;;5055593;28;20040;-72
2023/11/07 10:16:53;;;;;;;14.45;3.28;;;;;;;;;;5073178;28;20066;-72
2023/11/07 10:19:20;;;;;;;15.23;2.55;;;;;;;;;;5055804;28;20533;-72
2023/11/07 10:21:45;;;;;;;13.43;4.45;;;;;;;;;;5055050;28;20079;-72
2023/11/07 10:24:11;;;;;;;16.35;2.90;;;;;;;;;;5055329;28;20171;-72
2023/11/07 10:26:50;;;;;;;16.08;3.13;;;;;;;;;;5073065;28;20036;-72
2023/11/07 10:29:15;;;;;;;9.43;3.42;;;;;;;;;;5073247;28;20017;-72
2023/11/07 10:31:42;;;;;;;11.05;3.45;;;;;;;;;;5072961;28;20070;-72
2023/11/07 10:34:11;;;;;;;10.70;3.65;;;;;;;;;;5054483;28;20020;-72
2023/11/07 10:36:41;;;;;;;15.35;3.65;;;;;;;;;;5072998;28;20056;-72
2023/11/07 10:39:09;;;;;;;11.73;3.83;;;;;;;;;;5055026;28;20507;-72
2023/11/07 10:41:35;;;;;;;15.18;4.18;;;;;;;;;;5055356;28;20166;-72
2023/11/07 10:44:15;;;;;;;12.40;4.32;;;;;;;;;;5054995;28;20101;-72
2023/11/07 10:46:43;;;;;;;13.63;4.82;;;;;;;;;;5055011;28;20039;-72
2023/11/07 10:49:11;;;;;;;13.18;4.35;;;;;;;;;;5054379;28;20025;-72
2023/11/07 10:51:37;;;;;;;10.88;5.18;;;;;;;;;;5054694;28;20016;-72
2023/11/07 10:54:03;;;;;;;13.18;4.85;;;;;;;;;;5072679;28;20027;-72
2023/11/07 10:56:31;;;;;;;12.13;4.75;;;;;;;;;;5072035;28;20031;-72
2023/11/07 10:59:00;;;;;;;12.32;5.32;;;;;;;;;;5055318;28;20028;-72
2023/11/07 11:01:27;;;;;;;9.35;4.97;;;;;;;;;;5054627;28;20021;-72
2023/11/07 11:03:54;;;;;;;13.60;5.38;;;;;;;;;;5054707;28;20021;-72
2023/11/07 11:06:23;;;;;;;14.88;6.25;;;;;;;;;;5054783;28;20028;-72
2023/11/07 11:09:01;;;;;;;19.38;6.18;;;;;;;;;;5055104;28;20108;-72
2023/11/07 11:11:31;;;;;;;19.60;7.95;;;;;;;;;;5054361;28;20024;-72
2023/11/07 11:13:57;;;;;;;29.80;8.55;;;;;;;;;;5057052;28;20039;-72
2023/11/07 11:16:22;;;;;;;25.42;7.93;;;;;;;;;;5058694;28;20028;-72
2023/11/07 11:19:27;;;;;;;15.60;7.55;;;;;;;;;;5058406;28;20032;-72
2023/11/07 11:22:03;;;;;;;15.68;7.55;;;;;;;;;;5010153;28;20400;-72
2023/11/07 11:24:40;;;;;;;24.75;8.27;;;;;;;;;;5057754;28;20494;-72
2023/11/07 11:27:13;;;;;;;18.08;9.07;;;;;;;;;;5058223;28;20024;-71
2023/11/07 11:29:45;;;;;;;19.58;8.00;;;;;;;;;;5075795;28;20028;-72
2023/11/07 11:32:29;;;;;;;24.50;8.10;;;;;;;;;;5076037;28;20393;-72
2023/11/07 11:35:23;;;;;;;21.08;8.82;;;;;;;;;;5057295;28;20064;-72
2023/11/07 11:38:15;;;;;;;26.25;9.45;;;;;;;;;;5075897;28;20028;-72
2023/11/07 11:41:00;;;;;;;14.40;7.35;;;;;;;;;;5038131;28;20393;-72
2023/11/07 11:43:33;;;;;;;22.85;8.77;;;;;;;;;;5056199;28;20025;-72
2023/11/07 11:46:18;;;;;;;19.92;7.45;;;;;;;;;;5037968;28;20135;-72
2023/11/07 11:48:50;;;;;;;19.77;7.32;;;;;;;;;;5054923;28;20033;-72
2023/11/07 11:51:36;;;;;;;14.20;7.28;;;;;;;;;;5074318;28;20025;-72
2023/11/07 11:54:31;;;;;;;21.73;7.90;;;;;;;;;;5075588;28;20036;-72
2023/11/07 11:56:56;;;;;;;24.15;9.50;;;;;;;;;;5074429;28;20493;-72
2023/11/07 11:59:28;;;;;;;21.77;8.00;;;;;;;;;;5074843;28;20028;-72
2023/11/07 12:02:00;;;;;;;17.88;7.95;;;;;;;;;;5075757;28;20031;-72
2023/11/07 12:04:41;;;;;;;23.42;8.10;;;;;;;;;;5057756;28;20535;-72
2023/11/07 12:07:06;;;;;;;22.38;8.00;;;;;;;;;;5075287;28;20111;-72
2023/11/07 12:09:32;;;;;;;19.17;8.50;;;;;;;;;;5075327;28;20047;-72
2023/11/07 12:11:57;;;;;;;21.08;7.63;;;;;;;;;;5057651;28;20025;-72
2023/11/07 12:14:22;;;;;;;12.48;6.10;;;;;;;;;;5056886;28;20025;-72
2023/11/07 12:16:59;;;;;;;18.10;5.50;;;;;;;;;;5075255;28;20021;-72
2023/11/07 12:19:24;;;;;;;8.73;3.33;;;;;;;;;;5057223;28;20103;-72
2023/11/07 12:21:52;;;;;;;8.10;3.83;;;;;;;;;;5057376;28;20112;-72
2023/11/07 12:24:19;;;;;;;7.85;4.13;;;;;;;;;;5056024;28;20070;-72
2023/11/07 12:26:45;;;;;;;14.27;4.65;;;;;;;;;;5074854;28;20080;-72
2023/11/07 12:29:10;;;;;;;15.35;5.05;;;;;;;;;;5075403;28;20073;-72
2023/11/07 12:31:36;;;;;;;8.32;2.40;;;;;;;;;;5057271;28;20107;-72
2023/11/07 12:34:02;;;;;;;7.68;2.13;;;;;;;;;;5074890;28;20540;-72
2023/11/07 12:36:27;;;;;;;4.75;1.52;;;;;;;;;;5056476;28;20059;-72
2023/11/07 12:38:53;;;;;;;2.53;2.22;;;;;;;;;;5056360;28;20389;-72
2023/11/07 12:41:18;;;;;;;2.58;1.08;;;;;;;;;;5074203;28;20025;-72
2023/11/07 12:43:44;;;;;;;3.75;1.70;;;;;;;;;;5074417;28;20197;-72
2023/11/07 12:46:10;;;;;;;1.25;1.13;;;;;;;;;;5074561;28;20023;-72
2023/11/07 12:48:37;;;;;;;3.40;1.55;;;;;;;;;;5055822;28;20059;-72
2023/11/07 12:51:06;;;;;;;6.35;1.48;;;;;;;;;;5074385;28;20104;-72
2023/11/07 12:53:31;;;;;;;2.45;1.17;;;;;;;;;;5074096;28;20027;-72
2023/11/07 12:55:57;;;;;;;4.35;1.30;;;;;;;;;;5056153;28;20504;-72
2023/11/07 12:58:27;;;;;;;4.93;1.98;;;;;;;;;;5073821;28;20396;-72
2023/11/07 13:00:57;;;;;;;4.70;1.52;;;;;;;;;;5056193;28;20075;-72
2023/11/07 13:03:22;;;;;;;11.95;2.85;;;;;;;;;;5056399;28;20391;-72
2023/11/07 13:06:02;;;;;;;11.77;2.28;;;;;;;;;;5073761;28;20056;-72
2023/11/07 13:08:33;;;;;;;6.03;1.90;;;;;;;;;;5055693;28;20017;-72
2023/11/07 13:11:13;;;;;;;4.15;1.63;;;;;;;;;;5073919;28;20076;-72
2023/11/07 13:13:40;;;;;;;11.95;1.90;;;;;;;;;;5072943;28;20027;-72
2023/11/07 13:16:07;;;;;;;5.05;1.23;;;;;;;;;;5073787;28;20059;-72
2023/11/07 13:18:33;;;;;;;2.65;1.35;;;;;;;;;;5055793;28;20027;-71
2023/11/07 13:20:58;;;;;;;4.20;0.95;;;;;;;;;;5073798;28;20016;-72
2023/11/07 13:23:23;;;;;;;1.98;1.50;;;;;;;;;;5073590;28;20034;-72
2023/11/07 13:25:49;;;;;;;3.33;1.48;;;;;;;;;;5072438;28;20020;-72
2023/11/07 13:28:14;;;;;;;12.75;1.70;;;;;;;;;;5074189;28;20056;-72
2023/11/07 13:30:41;;;;;;;8.35;2.17;;;;;;;;;;5073343;28;20074;-72
2023/11/07 13:33:07;;;;;;;4.03;2.13;;;;;;;;;;5073258;28;20035;-72
2023/11/07 13:35:37;;;;;;;9.45;3.10;;;;;;;;;;5073032;28;20013;-72
2023/11/07 13:38:05;;;;;;;10.43;3.70;;;;;;;;;;5073181;28;20025;-72
2023/11/07 13:40:31;;;;;;;13.20;4.25;;;;;;;;;;5073200;28;20028;-72
2023/11/07 13:42:56;;;;;;;20.25;5.68;;;;;;;;;;5072941;28;20493;-72
2023/11/07 13:45:22;;;;;;;12.52;3.75;;;;;;;;;;5040672;28;20025;-72
2023/11/07 13:47:47;;;;;;;11.05;4.32;;;;;;;;;;5053223;28;20490;-72
2023/11/07 13:50:13;;;;;;;12.93;4.78;;;;;;;;;;5058193;28;20030;-72
2023/11/07 13:52:41;;;;;;;11.80;4.32;;;;;;;;;;5073481;28;20016;-72
2023/11/07 13:55:06;;;;;;;10.70;4.82;;;;;;;;;;5068123;28;20017;-71
2023/11/07 13:57:32;;;;;;;15.18;5.72;;;;;;;;;;5060864;28;20386;-71
2023/11/07 13:59:59;;;;;;;12.63;5.18;;;;;;;;;;5045349;28;20267;-73
2023/11/07 14:02:25;;;;;;;14.57;4.72;;;;;;;;;;5057291;28;20078;-73
2023/11/07 14:04:50;;;;;;;14.75;4.78;;;;;;;;;;5059284;28;20135;-73
2023/11/07 14:07:17;;;;;;;11.05;5.47;;;;;;;;;;5041819;28;20062;-72
2023/11/07 14:09:42;;;;;;;9.93;4.60;;;;;;;;;;5043287;28;20036;-72
2023/11/07 14:12:07;;;;;;;18.42;6.72;;;;;;;;;;5044768;28;20028;-71
2023/11/07 14:14:33;;;;;;;9.52;4.75;;;;;;;;;;5047706;28;20033;-72
2023/11/07 14:16:59;;;;;;;20.60;6.07;;;;;;;;;;5059013;28;20377;-71
2023/11/07 14:19:25;;;;;;;10.15;4.85;;;;;;;;;;5057256;28;20496;-72
2023/11/07 14:21:50;;;;;;;17.48;5.57;;;;;;;;;;5065104;28;20036;-73
2023/11/07 14:24:15;;;;;;;15.70;5.50;;;;;;;;;;5055397;28;20837;-72
2023/11/07 14:26:41;;;;;;;13.68;5.82;;;;;;;;;;5059507;28;20024;-72
2023/11/07 14:29:06;;;;;;;13.90;5.97;;;;;;;;;;5063368;28;20025;-73
2023/11/07 14:31:32;;;;;;;9.77;5.60;;;;;;;;;;5056125;28;20509;-72
2023/11/07 14:33:58;;;;;;;14.77;6.20;;;;;;;;;;5062060;28;20090;-73